Time;durP1;ratioP1;P1;durP2;ratioP2;P2;SDS_P1;SDS_P2;PMS_P1;PMS_P2;Temp;Humidity;BMP_temperature;BMP_pressure;BME280_temperature;BME280_humidity;BME280_pressure;Samples;Min_cycle;Max_cycle;Signal;HPM_P1;HPM_P2
2022/03/05 00:02:00;;;;;;;12.35;8.02;;;;;;;;;;5081296;28;20077;-77
2022/03/05 00:04:26;;;;;;;11.57;7.10;;;;;;;;;;5104165;27;20050;-76
2022/03/05 00:06:52;;;;;;;11.85;7.88;;;;;;;;;;5084141;28;20035;-76
2022/03/05 00:09:18;;;;;;;13.20;7.53;;;;;;;;;;5085744;28;20104;-76
2022/03/05 00:11:44;;;;;;;13.43;7.55;;;;;;;;;;5103290;28;20469;-76
2022/03/05 00:14:10;;;;;;;15.05;9.13;;;;;;;;;;5101921;27;20043;-76
2022/03/05 00:16:36;;;;;;;17.77;11.07;;;;;;;;;;5085521;28;20107;-73
2022/03/05 00:19:03;;;;;;;12.50;8.38;;;;;;;;;;5094495;28;20608;-76
2022/03/05 00:21:29;;;;;;;12.05;7.60;;;;;;;;;;5076062;28;20043;-75
2022/03/05 00:23:55;;;;;;;11.27;7.65;;;;;;;;;;5078932;28;20490;-75
2022/03/05 00:26:21;;;;;;;12.70;8.18;;;;;;;;;;5077849;28;20058;-75
2022/03/05 00:28:47;;;;;;;16.05;9.25;;;;;;;;;;5100117;27;20028;-76
2022/03/05 00:31:13;;;;;;;13.10;8.25;;;;;;;;;;5099895;28;20085;-76
2022/03/05 00:33:39;;;;;;;16.08;8.45;;;;;;;;;;5099771;28;20503;-76
2022/03/05 00:36:06;;;;;;;14.27;8.85;;;;;;;;;;5098917;28;20022;-76
2022/03/05 00:38:32;;;;;;;14.27;9.38;;;;;;;;;;5098588;28;20048;-76
2022/03/05 00:40:58;;;;;;;16.45;8.73;;;;;;;;;;5101725;27;23607;-77
2022/03/05 00:43:24;;;;;;;16.85;8.88;;;;;;;;;;5095872;28;20047;-76
2022/03/05 00:45:50;;;;;;;16.42;8.90;;;;;;;;;;5097273;27;20024;-76
2022/03/05 00:48:16;;;;;;;14.20;8.52;;;;;;;;;;5076976;28;20039;-76
2022/03/05 00:50:43;;;;;;;14.13;8.93;;;;;;;;;;5094718;28;20036;-76
2022/03/05 00:53:11;;;;;;;16.88;9.38;;;;;;;;;;5103708;27;20031;-76
2022/03/05 00:55:38;;;;;;;18.20;9.05;;;;;;;;;;5080023;28;20030;-76
2022/03/05 00:58:04;;;;;;;14.30;8.52;;;;;;;;;;5099679;28;20055;-76
2022/03/05 01:00:30;;;;;;;13.95;8.75;;;;;;;;;;5100535;28;20028;-75
2022/03/05 01:02:56;;;;;;;19.00;9.35;;;;;;;;;;5106035;28;20024;-76
2022/03/05 01:05:22;;;;;;;14.07;8.95;;;;;;;;;;5058150;28;20040;-76
2022/03/05 01:07:48;;;;;;;19.58;9.98;;;;;;;;;;5103479;28;20035;-77
2022/03/05 01:10:14;;;;;;;15.40;8.80;;;;;;;;;;5094693;28;20024;-76
2022/03/05 01:12:41;;;;;;;17.20;9.07;;;;;;;;;;5098836;27;20386;-76
2022/03/05 01:15:08;;;;;;;17.73;9.27;;;;;;;;;;5094247;28;20391;-76
2022/03/05 01:17:34;;;;;;;15.05;9.35;;;;;;;;;;5100240;28;20028;-76
2022/03/05 01:20:00;;;;;;;18.13;9.40;;;;;;;;;;5077146;28;20080;-76
2022/03/05 01:22:26;;;;;;;19.08;9.70;;;;;;;;;;5100390;28;20032;-76
2022/03/05 01:24:52;;;;;;;16.95;9.35;;;;;;;;;;5100634;28;20433;-75
2022/03/05 01:27:18;;;;;;;16.38;9.70;;;;;;;;;;5100695;28;20032;-75
2022/03/05 01:29:44;;;;;;;15.82;9.50;;;;;;;;;;5099550;28;20031;-75
2022/03/05 01:32:11;;;;;;;17.00;10.27;;;;;;;;;;5084261;28;20052;-75
2022/03/05 01:34:37;;;;;;;15.73;9.43;;;;;;;;;;5099078;27;20147;-76
2022/03/05 01:37:03;;;;;;;15.73;9.07;;;;;;;;;;5106762;28;20103;-76
2022/03/05 01:39:29;;;;;;;19.40;9.40;;;;;;;;;;5097065;28;20055;-75
2022/03/05 01:41:56;;;;;;;19.27;10.65;;;;;;;;;;5104180;27;20016;-75
2022/03/05 01:44:22;;;;;;;17.25;9.45;;;;;;;;;;5100192;28;20028;-75
2022/03/05 01:46:48;;;;;;;15.60;9.00;;;;;;;;;;5103383;27;20027;-75
2022/03/05 01:49:15;;;;;;;15.75;9.38;;;;;;;;;;5103551;28;20090;-75
2022/03/05 01:51:41;;;;;;;16.30;9.15;;;;;;;;;;5098219;28;20028;-76
2022/03/05 01:54:08;;;;;;;16.73;9.52;;;;;;;;;;5100399;28;20026;-74
2022/03/05 01:56:35;;;;;;;24.55;9.30;;;;;;;;;;5087248;28;20036;-75
2022/03/05 01:59:01;;;;;;;14.95;8.93;;;;;;;;;;5096948;28;20028;-75
2022/03/05 02:01:28;;;;;;;21.13;9.95;;;;;;;;;;5098430;28;20119;-75
2022/03/05 02:03:55;;;;;;;16.58;9.80;;;;;;;;;;5109591;28;20032;-76
2022/03/05 02:06:21;;;;;;;15.35;9.10;;;;;;;;;;5100166;27;20529;-75
2022/03/05 02:08:48;;;;;;;16.15;9.52;;;;;;;;;;5094071;28;20019;-75
2022/03/05 02:11:14;;;;;;;14.57;9.13;;;;;;;;;;5097367;27;20043;-74
2022/03/05 02:13:41;;;;;;;18.80;9.70;;;;;;;;;;5097559;28;20051;-75
2022/03/05 02:16:07;;;;;;;16.02;8.95;;;;;;;;;;5101718;28;20527;-75
2022/03/05 02:18:33;;;;;;;16.33;9.23;;;;;;;;;;5099751;28;20052;-76
2022/03/05 02:21:00;;;;;;;15.70;9.13;;;;;;;;;;5111194;28;20368;-76
2022/03/05 02:23:26;;;;;;;15.27;9.68;;;;;;;;;;5093584;28;20503;-75
2022/03/05 02:26:05;;;;;;;15.35;9.60;;;;;;;;;;5106717;28;20483;-75
2022/03/05 02:28:32;;;;;;;16.80;9.68;;;;;;;;;;5081732;28;20031;-76
2022/03/05 02:30:58;;;;;;;19.50;9.63;;;;;;;;;;5079560;28;20028;-75
2022/03/05 02:33:25;;;;;;;16.63;8.40;;;;;;;;;;5096756;28;20043;-75
2022/03/05 02:35:51;;;;;;;16.67;8.70;;;;;;;;;;5104991;28;20020;-75
2022/03/05 02:38:18;;;;;;;16.27;8.63;;;;;;;;;;5086670;28;20571;-75
2022/03/05 02:40:44;;;;;;;15.98;8.45;;;;;;;;;;5124885;27;20019;-75
2022/03/05 02:43:11;;;;;;;15.25;7.85;;;;;;;;;;5099928;28;20028;-75
2022/03/05 02:45:37;;;;;;;12.57;7.85;;;;;;;;;;5080770;28;20031;-77
2022/03/05 02:48:04;;;;;;;12.32;8.18;;;;;;;;;;5104471;27;20062;-76
2022/03/05 02:50:31;;;;;;;16.10;8.18;;;;;;;;;;5099351;28;20554;-76
2022/03/05 02:52:57;;;;;;;16.00;9.13;;;;;;;;;;5092441;28;20404;-75
2022/03/05 02:55:23;;;;;;;14.23;8.25;;;;;;;;;;5098233;28;20093;-74
2022/03/05 02:57:49;;;;;;;22.98;7.93;;;;;;;;;;5102324;28;20540;-75
2022/03/05 03:00:15;;;;;;;15.20;8.02;;;;;;;;;;5095734;28;20043;-75
2022/03/05 03:02:43;;;;;;;12.70;8.07;;;;;;;;;;5102331;28;20072;-75
2022/03/05 03:05:09;;;;;;;16.27;8.93;;;;;;;;;;5103105;28;20125;-75
2022/03/05 03:07:35;;;;;;;12.68;8.02;;;;;;;;;;5102753;28;20072;-75
2022/03/05 03:10:02;;;;;;;15.25;8.10;;;;;;;;;;5100618;28;20035;-75
2022/03/05 03:12:28;;;;;;;14.90;7.68;;;;;;;;;;5091939;28;20050;-76
2022/03/05 03:14:57;;;;;;;12.98;7.15;;;;;;;;;;5098267;28;20028;-78
2022/03/05 03:17:23;;;;;;;13.88;8.05;;;;;;;;;;5109165;28;20475;-75
2022/03/05 03:19:49;;;;;;;15.85;8.60;;;;;;;;;;5094055;28;20036;-76
2022/03/05 03:22:16;;;;;;;12.35;7.05;;;;;;;;;;5096370;28;20039;-76
2022/03/05 03:24:42;;;;;;;14.07;7.72;;;;;;;;;;5074900;28;20044;-76
2022/03/05 03:27:08;;;;;;;12.73;7.35;;;;;;;;;;5084766;28;20032;-74
2022/03/05 03:29:35;;;;;;;14.85;8.45;;;;;;;;;;5094517;28;20467;-74
2022/03/05 03:32:01;;;;;;;11.75;6.95;;;;;;;;;;5094173;28;20375;-74
2022/03/05 03:34:27;;;;;;;16.77;7.72;;;;;;;;;;5097440;28;20027;-75
2022/03/05 03:36:53;;;;;;;12.93;7.15;;;;;;;;;;5072715;28;20032;-75
2022/03/05 03:39:19;;;;;;;14.60;7.65;;;;;;;;;;5098796;28;20051;-75
2022/03/05 03:41:45;;;;;;;9.88;6.63;;;;;;;;;;5101205;28;20036;-75
2022/03/05 03:44:11;;;;;;;10.80;7.03;;;;;;;;;;5073917;28;20035;-77
2022/03/05 03:46:37;;;;;;;14.73;6.63;;;;;;;;;;5100465;28;20027;-76
2022/03/05 03:49:04;;;;;;;12.35;6.47;;;;;;;;;;5074446;28;20115;-76
2022/03/05 03:51:30;;;;;;;14.13;7.22;;;;;;;;;;5100984;28;20123;-76
2022/03/05 03:53:57;;;;;;;13.00;7.72;;;;;;;;;;5092890;28;20652;-75
2022/03/05 03:56:23;;;;;;;13.50;7.32;;;;;;;;;;5095365;28;20499;-75
2022/03/05 03:58:49;;;;;;;12.50;6.95;;;;;;;;;;5098913;28;20023;-75
2022/03/05 04:01:15;;;;;;;11.95;7.30;;;;;;;;;;5107307;27;20032;-75
2022/03/05 04:03:41;;;;;;;13.05;7.25;;;;;;;;;;5088509;28;20114;-76
2022/03/05 04:06:07;;;;;;;14.45;7.68;;;;;;;;;;5098360;28;20038;-75
2022/03/05 04:08:43;;;;;;;15.68;8.27;;;;;;;;;;5105503;28;20024;-76
2022/03/05 04:11:18;;;;;;;11.95;6.90;;;;;;;;;;5106641;28;20054;-76
2022/03/05 04:13:45;;;;;;;14.48;7.03;;;;;;;;;;5083932;28;20031;-76
2022/03/05 04:16:11;;;;;;;11.25;6.70;;;;;;;;;;5102356;28;20420;-75
2022/03/05 04:18:37;;;;;;;15.80;7.40;;;;;;;;;;5101099;28;20106;-77
2022/03/05 04:21:06;;;;;;;10.95;6.50;;;;;;;;;;5101604;28;20024;-75
2022/03/05 04:23:32;;;;;;;13.13;7.43;;;;;;;;;;5101020;28;20035;-78
2022/03/05 04:25:58;;;;;;;15.10;6.18;;;;;;;;;;5087114;28;20055;-76
2022/03/05 04:28:24;;;;;;;14.25;7.00;;;;;;;;;;5102273;27;20075;-75
2022/03/05 04:30:50;;;;;;;10.60;6.55;;;;;;;;;;5107760;28;20020;-75
2022/03/05 04:33:17;;;;;;;19.10;7.72;;;;;;;;;;5102242;28;20032;-76
2022/03/05 04:35:43;;;;;;;13.10;7.88;;;;;;;;;;5094376;28;20031;-78
2022/03/05 04:38:09;;;;;;;20.52;10.57;;;;;;;;;;5113900;28;20040;-80
2022/03/05 04:40:35;;;;;;;15.32;7.43;;;;;;;;;;5100471;28;20032;-77
2022/03/05 04:43:01;;;;;;;13.10;8.38;;;;;;;;;;5078265;28;20093;-77
2022/03/05 04:45:28;;;;;;;15.00;7.32;;;;;;;;;;5099683;27;20032;-77
2022/03/05 04:47:54;;;;;;;14.73;8.27;;;;;;;;;;5106122;27;20061;-77
2022/03/05 04:50:20;;;;;;;12.00;7.57;;;;;;;;;;5105226;28;20035;-77
2022/03/05 04:52:46;;;;;;;16.85;8.45;;;;;;;;;;5101548;28;20028;-78
2022/03/05 04:55:12;;;;;;;14.93;6.90;;;;;;;;;;5103769;28;20028;-77
2022/03/05 04:57:39;;;;;;;15.10;7.97;;;;;;;;;;5094307;28;20032;-79
2022/03/05 05:00:06;;;;;;;13.52;7.45;;;;;;;;;;5103440;27;20031;-77
2022/03/05 05:02:32;;;;;;;15.27;7.53;;;;;;;;;;5110959;28;20030;-78
2022/03/05 05:04:58;;;;;;;12.70;7.07;;;;;;;;;;5087268;28;20850;-77
2022/03/05 05:07:24;;;;;;;13.40;7.68;;;;;;;;;;5108969;28;20040;-76
2022/03/05 05:09:50;;;;;;;13.65;8.30;;;;;;;;;;5093474;28;20365;-77
2022/03/05 05:12:16;;;;;;;15.10;8.35;;;;;;;;;;5100620;27;20414;-77
2022/03/05 05:14:42;;;;;;;20.52;7.88;;;;;;;;;;5108442;28;20062;-77
2022/03/05 05:17:08;;;;;;;13.95;7.97;;;;;;;;;;5098879;28;20028;-76
2022/03/05 05:19:34;;;;;;;24.35;11.85;;;;;;;;;;5106554;28;20023;-78
2022/03/05 05:22:01;;;;;;;34.75;15.38;;;;;;;;;;5096757;27;20031;-77
2022/03/05 05:24:29;;;;;;;14.82;8.68;;;;;;;;;;5102461;28;20035;-76
2022/03/05 05:26:55;;;;;;;18.55;9.40;;;;;;;;;;5106726;28;20058;-76
2022/03/05 05:29:21;;;;;;;15.35;8.10;;;;;;;;;;5103264;27;20379;-75
2022/03/05 05:31:48;;;;;;;16.42;8.18;;;;;;;;;;5100900;27;20024;-76
2022/03/05 05:34:14;;;;;;;15.65;8.35;;;;;;;;;;5097479;28;20051;-76
2022/03/05 05:36:40;;;;;;;18.45;7.95;;;;;;;;;;5107209;27;20054;-76
2022/03/05 05:39:09;;;;;;;14.35;7.95;;;;;;;;;;5108331;28;20101;-76
2022/03/05 05:41:36;;;;;;;15.45;7.85;;;;;;;;;;5099346;28;20074;-78
2022/03/05 05:44:03;;;;;;;14.75;7.10;;;;;;;;;;5099256;28;20028;-79
2022/03/05 05:46:29;;;;;;;18.27;7.88;;;;;;;;;;5103535;28;20031;-77
2022/03/05 05:48:56;;;;;;;11.48;6.80;;;;;;;;;;5084571;28;20114;-78
2022/03/05 05:51:23;;;;;;;15.48;8.52;;;;;;;;;;5102952;28;20110;-78
2022/03/05 05:53:49;;;;;;;18.20;7.85;;;;;;;;;;5080359;28;20097;-78
2022/03/05 05:56:15;;;;;;;14.43;7.75;;;;;;;;;;5105075;28;20035;-77
2022/03/05 05:58:41;;;;;;;15.38;7.93;;;;;;;;;;5097277;28;20459;-79
2022/03/05 06:01:07;;;;;;;15.82;7.78;;;;;;;;;;5100291;28;20038;-78
2022/03/05 06:03:33;;;;;;;13.77;8.20;;;;;;;;;;5080619;28;20132;-79
2022/03/05 06:06:00;;;;;;;17.92;7.50;;;;;;;;;;5102674;27;20028;-77
2022/03/05 06:08:27;;;;;;;16.00;7.95;;;;;;;;;;5101546;28;20395;-77
2022/03/05 06:10:54;;;;;;;13.82;7.50;;;;;;;;;;5101079;28;20023;-78
2022/03/05 06:13:20;;;;;;;13.10;7.50;;;;;;;;;;5098002;28;20022;-77
2022/03/05 06:15:46;;;;;;;15.82;7.50;;;;;;;;;;5106342;28;20030;-78
2022/03/05 06:18:12;;;;;;;14.77;7.63;;;;;;;;;;5105151;28;20019;-78
2022/03/05 06:20:38;;;;;;;13.10;7.00;;;;;;;;;;5103168;27;20463;-77
2022/03/05 06:23:04;;;;;;;16.55;7.75;;;;;;;;;;5093495;28;20471;-76
2022/03/05 06:25:31;;;;;;;25.58;12.23;;;;;;;;;;5082839;28;20036;-78
2022/03/05 06:27:57;;;;;;;17.08;8.73;;;;;;;;;;5099696;28;20062;-77
2022/03/05 06:30:23;;;;;;;17.52;8.30;;;;;;;;;;5097782;28;20031;-76
2022/03/05 06:32:49;;;;;;;14.07;8.02;;;;;;;;;;5100280;28;20027;-75
2022/03/05 06:35:15;;;;;;;13.77;7.90;;;;;;;;;;5106585;28;20051;-75
2022/03/05 06:37:41;;;;;;;13.27;7.47;;;;;;;;;;5073895;28;20051;-76
2022/03/05 06:40:11;;;;;;;12.77;7.22;;;;;;;;;;5100535;28;20016;-75
2022/03/05 06:42:38;;;;;;;12.63;7.35;;;;;;;;;;5108588;28;20460;-75
2022/03/05 06:45:04;;;;;;;15.20;7.75;;;;;;;;;;5086125;28;20027;-75
2022/03/05 06:47:31;;;;;;;13.23;7.10;;;;;;;;;;5076113;28;20379;-75
2022/03/05 06:49:57;;;;;;;12.82;7.05;;;;;;;;;;5100231;28;20051;-75
2022/03/05 06:52:23;;;;;;;17.77;7.80;;;;;;;;;;5099315;28;20040;-75
2022/03/05 06:54:50;;;;;;;12.77;7.95;;;;;;;;;;5098541;28;20044;-75
2022/03/05 06:57:16;;;;;;;13.43;7.03;;;;;;;;;;5101237;28;20085;-77
2022/03/05 06:59:42;;;;;;;15.48;6.78;;;;;;;;;;5109110;28;20043;-76
2022/03/05 07:02:08;;;;;;;12.40;7.15;;;;;;;;;;5102393;28;20436;-75
2022/03/05 07:04:34;;;;;;;12.68;7.28;;;;;;;;;;5109106;28;20061;-76
2022/03/05 07:07:00;;;;;;;10.30;6.00;;;;;;;;;;5099217;28;20051;-75
2022/03/05 07:09:26;;;;;;;10.68;6.47;;;;;;;;;;5100517;28;20053;-75
2022/03/05 07:11:52;;;;;;;10.52;6.22;;;;;;;;;;5095507;28;20046;-75
2022/03/05 07:14:18;;;;;;;11.75;6.55;;;;;;;;;;5072298;28;20594;-76
2022/03/05 07:16:44;;;;;;;9.55;6.10;;;;;;;;;;5100525;28;20040;-76
2022/03/05 07:19:11;;;;;;;10.48;5.78;;;;;;;;;;5110459;28;20058;-76
2022/03/05 07:21:37;;;;;;;10.43;6.57;;;;;;;;;;5104347;28;20047;-76
2022/03/05 07:24:04;;;;;;;12.68;6.43;;;;;;;;;;5081731;28;20057;-76
2022/03/05 07:26:30;;;;;;;10.30;6.78;;;;;;;;;;5103993;28;20036;-76
2022/03/05 07:28:56;;;;;;;15.93;6.18;;;;;;;;;;5109206;28;20489;-76
2022/03/05 07:31:22;;;;;;;12.35;5.70;;;;;;;;;;5101744;28;20032;-76
2022/03/05 07:33:48;;;;;;;10.93;6.43;;;;;;;;;;5098973;28;20116;-76
2022/03/05 07:36:14;;;;;;;11.23;6.63;;;;;;;;;;5103690;28;20094;-76
2022/03/05 07:38:43;;;;;;;12.25;6.05;;;;;;;;;;5080738;28;20455;-76
2022/03/05 07:41:09;;;;;;;11.73;6.93;;;;;;;;;;5107553;28;20069;-76
2022/03/05 07:43:35;;;;;;;11.65;6.90;;;;;;;;;;5092762;28;20032;-76
2022/03/05 07:46:01;;;;;;;10.68;6.50;;;;;;;;;;5095883;28;20032;-76
2022/03/05 07:48:27;;;;;;;11.70;5.95;;;;;;;;;;5101458;28;20031;-75
2022/03/05 07:50:53;;;;;;;10.32;6.57;;;;;;;;;;5077973;28;20123;-76
2022/03/05 07:53:20;;;;;;;10.95;6.35;;;;;;;;;;5102706;28;20143;-76
2022/03/05 07:55:46;;;;;;;12.13;7.00;;;;;;;;;;5094979;28;20028;-76
2022/03/05 07:58:12;;;;;;;11.68;6.55;;;;;;;;;;5102354;27;20368;-76
2022/03/05 08:00:38;;;;;;;14.32;7.03;;;;;;;;;;5096501;28;20043;-77
2022/03/05 08:03:04;;;;;;;13.73;7.05;;;;;;;;;;5080689;28;20111;-76
2022/03/05 08:05:31;;;;;;;11.75;6.65;;;;;;;;;;5100988;28;20066;-76
2022/03/05 08:07:57;;;;;;;13.80;7.13;;;;;;;;;;5104529;28;20390;-77
2022/03/05 08:10:23;;;;;;;12.80;7.13;;;;;;;;;;5108522;27;20065;-75
2022/03/05 08:12:49;;;;;;;13.82;7.93;;;;;;;;;;5110799;28;20031;-75
2022/03/05 08:15:15;;;;;;;13.23;7.30;;;;;;;;;;5096385;28;20115;-75
2022/03/05 08:17:51;;;;;;;14.88;7.30;;;;;;;;;;5106253;27;20038;-75
2022/03/05 08:20:18;;;;;;;14.25;7.63;;;;;;;;;;5076678;28;20034;-76
2022/03/05 08:22:44;;;;;;;15.65;7.45;;;;;;;;;;5103236;28;20023;-75
2022/03/05 08:25:10;;;;;;;14.07;7.63;;;;;;;;;;5110428;27;20036;-76
2022/03/05 08:27:36;;;;;;;14.23;8.20;;;;;;;;;;5081864;28;20058;-74
2022/03/05 08:30:03;;;;;;;14.13;8.07;;;;;;;;;;5105045;27;20055;-75
2022/03/05 08:32:29;;;;;;;11.45;7.15;;;;;;;;;;5107341;28;20123;-76
2022/03/05 08:34:55;;;;;;;13.65;8.13;;;;;;;;;;5090842;28;20040;-75
2022/03/05 08:37:21;;;;;;;14.02;7.10;;;;;;;;;;5093225;28;20035;-77
2022/03/05 08:39:47;;;;;;;12.23;7.25;;;;;;;;;;5097005;28;20048;-77
2022/03/05 08:42:13;;;;;;;11.15;7.32;;;;;;;;;;5103930;27;20035;-76
2022/03/05 08:44:39;;;;;;;13.75;7.63;;;;;;;;;;5097084;28;20501;-76
2022/03/05 08:47:06;;;;;;;17.88;9.90;;;;;;;;;;5100034;28;20111;-76
2022/03/05 08:49:32;;;;;;;12.27;8.35;;;;;;;;;;5082090;28;20056;-78
2022/03/05 08:51:58;;;;;;;17.10;8.98;;;;;;;;;;5096133;28;20081;-76
2022/03/05 08:54:25;;;;;;;12.32;7.70;;;;;;;;;;5099215;28;20487;-78
2022/03/05 08:56:51;;;;;;;13.05;8.55;;;;;;;;;;5106947;27;20585;-77
2022/03/05 08:59:17;;;;;;;15.25;9.88;;;;;;;;;;5096249;28;20028;-76
2022/03/05 09:01:44;;;;;;;15.60;9.00;;;;;;;;;;5099713;28;20032;-76
2022/03/05 09:04:10;;;;;;;17.48;9.55;;;;;;;;;;5088574;28;20044;-75
2022/03/05 09:06:38;;;;;;;13.75;8.95;;;;;;;;;;5105853;28;20487;-77
2022/03/05 09:09:05;;;;;;;13.48;9.10;;;;;;;;;;5091027;28;20141;-77
2022/03/05 09:11:31;;;;;;;17.35;10.05;;;;;;;;;;5105458;27;20111;-77
2022/03/05 09:13:57;;;;;;;16.73;10.18;;;;;;;;;;5104043;27;20036;-77
2022/03/05 09:16:23;;;;;;;18.50;9.95;;;;;;;;;;5110764;28;20616;-77
2022/03/05 09:18:51;;;;;;;14.80;9.65;;;;;;;;;;5077286;28;20430;-78
2022/03/05 09:21:17;;;;;;;17.02;11.15;;;;;;;;;;5099636;28;20094;-77
2022/03/05 09:23:43;;;;;;;17.77;10.98;;;;;;;;;;5099464;28;20040;-76
2022/03/05 09:26:09;;;;;;;16.73;10.95;;;;;;;;;;5101887;27;20267;-77
2022/03/05 09:28:36;;;;;;;15.45;10.35;;;;;;;;;;5108234;28;20376;-77
2022/03/05 09:31:02;;;;;;;32.47;18.95;;;;;;;;;;5103935;28;20905;-75
2022/03/05 09:33:29;;;;;;;20.75;12.70;;;;;;;;;;5109705;28;20036;-77
2022/03/05 09:35:55;;;;;;;18.60;11.10;;;;;;;;;;5104260;28;20482;-77
2022/03/05 09:38:21;;;;;;;19.13;10.52;;;;;;;;;;5107924;28;20055;-76
2022/03/05 09:40:47;;;;;;;15.68;11.05;;;;;;;;;;5102938;28;20024;-77
2022/03/05 09:43:13;;;;;;;14.60;10.27;;;;;;;;;;5083425;28;20024;-77
2022/03/05 09:45:39;;;;;;;17.50;10.88;;;;;;;;;;5104723;28;20288;-76
2022/03/05 09:48:06;;;;;;;15.07;10.38;;;;;;;;;;5106149;28;20041;-76
2022/03/05 09:50:32;;;;;;;16.77;10.57;;;;;;;;;;5106385;27;20042;-77
2022/03/05 09:52:58;;;;;;;18.08;9.80;;;;;;;;;;5095440;28;20031;-78
2022/03/05 09:55:25;;;;;;;15.95;9.85;;;;;;;;;;5102119;27;20102;-77
2022/03/05 09:57:51;;;;;;;17.17;10.23;;;;;;;;;;5096863;28;20023;-76
2022/03/05 10:00:17;;;;;;;17.08;10.25;;;;;;;;;;5106082;27;20028;-77
2022/03/05 10:02:44;;;;;;;15.70;10.80;;;;;;;;;;5101428;27;20035;-77
2022/03/05 10:05:19;;;;;;;16.20;10.52;;;;;;;;;;5100271;28;20036;-77
2022/03/05 10:08:00;;;;;;;15.25;11.13;;;;;;;;;;5101160;28;20016;-76
2022/03/05 10:10:27;;;;;;;17.42;12.13;;;;;;;;;;5100070;27;20028;-77
2022/03/05 10:12:53;;;;;;;16.95;10.75;;;;;;;;;;5102697;28;20395;-78
2022/03/05 10:15:21;;;;;;;18.33;11.45;;;;;;;;;;5097662;27;20036;-78
2022/03/05 10:18:00;;;;;;;16.33;10.88;;;;;;;;;;5097745;28;20426;-79
2022/03/05 10:20:27;;;;;;;16.90;10.90;;;;;;;;;;5095767;28;20085;-77
2022/03/05 10:23:12;;;;;;;16.92;10.75;;;;;;;;;;5101688;28;20033;-77
2022/03/05 10:25:38;;;;;;;16.25;11.43;;;;;;;;;;5098495;28;20024;-76
2022/03/05 10:28:07;;;;;;;16.40;11.75;;;;;;;;;;5105484;27;20356;-76
2022/03/05 10:30:35;;;;;;;15.80;11.48;;;;;;;;;;5098359;28;20483;-77
2022/03/05 10:33:01;;;;;;;17.75;11.60;;;;;;;;;;5102149;28;20036;-76
2022/03/05 10:35:27;;;;;;;17.23;11.05;;;;;;;;;;5104091;28;20058;-78
2022/03/05 10:37:54;;;;;;;18.77;12.20;;;;;;;;;;5101756;28;20032;-76
2022/03/05 10:40:36;;;;;;;20.73;11.95;;;;;;;;;;5080740;28;20461;-76
2022/03/05 10:43:03;;;;;;;17.60;11.32;;;;;;;;;;5081281;28;20058;-76
2022/03/05 10:45:29;;;;;;;17.10;11.68;;;;;;;;;;5074517;28;20407;-77
2022/03/05 10:47:57;;;;;;;16.50;11.93;;;;;;;;;;5083519;28;20051;-76
2022/03/05 10:50:28;;;;;;;16.05;10.77;;;;;;;;;;5085657;28;20539;-76
2022/03/05 10:53:00;;;;;;;16.95;10.93;;;;;;;;;;5076134;28;20495;-76
2022/03/05 10:55:27;;;;;;;15.82;11.15;;;;;;;;;;5079311;28;20039;-76
2022/03/05 10:58:01;;;;;;;23.27;15.73;;;;;;;;;;5087440;28;20989;-78
2022/03/05 11:00:27;;;;;;;20.90;13.93;;;;;;;;;;5082705;28;20056;-77
2022/03/05 11:02:55;;;;;;;19.48;12.60;;;;;;;;;;5057041;28;20115;-76
2022/03/05 11:05:23;;;;;;;17.65;11.85;;;;;;;;;;5086231;28;20059;-77
2022/03/05 11:07:49;;;;;;;16.95;11.65;;;;;;;;;;5079724;28;20380;-76
2022/03/05 11:10:18;;;;;;;21.17;12.82;;;;;;;;;;5088053;28;20035;-77
2022/03/05 11:12:51;;;;;;;18.52;12.32;;;;;;;;;;5071860;28;20024;-77
2022/03/05 11:15:18;;;;;;;17.35;12.18;;;;;;;;;;5061344;28;20093;-75
2022/03/05 11:17:45;;;;;;;19.27;12.18;;;;;;;;;;5089364;28;20047;-77
2022/03/05 11:20:12;;;;;;;21.25;12.93;;;;;;;;;;5078527;28;20158;-76
2022/03/05 11:22:38;;;;;;;18.48;11.93;;;;;;;;;;5076706;28;20067;-76
2022/03/05 11:25:05;;;;;;;18.52;11.85;;;;;;;;;;5076213;28;20514;-77
2022/03/05 11:27:31;;;;;;;17.27;12.02;;;;;;;;;;5073829;28;20021;-76
2022/03/05 11:29:58;;;;;;;16.92;10.85;;;;;;;;;;5083950;28;20543;-76
2022/03/05 11:32:31;;;;;;;17.73;11.48;;;;;;;;;;5081159;28;20036;-75
2022/03/05 11:34:57;;;;;;;17.73;11.80;;;;;;;;;;5084340;28;20430;-75
2022/03/05 11:37:25;;;;;;;19.98;12.73;;;;;;;;;;5077422;28;20432;-75
2022/03/05 11:39:51;;;;;;;19.40;12.30;;;;;;;;;;5076564;28;20063;-75
2022/03/05 11:42:27;;;;;;;21.42;12.48;;;;;;;;;;5079017;28;20503;-75
2022/03/05 11:44:53;;;;;;;21.02;12.07;;;;;;;;;;5064418;28;20043;-76
2022/03/05 11:47:19;;;;;;;18.38;11.85;;;;;;;;;;5086897;28;20028;-76
2022/03/05 11:49:58;;;;;;;33.15;20.80;;;;;;;;;;5079406;28;20039;-78
2022/03/05 11:52:46;;;;;;;64.35;37.95;;;;;;;;;;5075720;28;20082;-77
2022/03/05 11:55:15;;;;;;;22.20;12.57;;;;;;;;;;5074300;28;20433;-84
2022/03/05 11:57:43;;;;;;;18.90;12.05;;;;;;;;;;5086059;28;20030;-78
2022/03/05 12:00:09;;;;;;;17.00;11.90;;;;;;;;;;5083988;28;20038;-77
2022/03/05 12:02:41;;;;;;;22.05;12.60;;;;;;;;;;5078392;28;20035;-76
2022/03/05 12:05:07;;;;;;;20.08;12.57;;;;;;;;;;5082873;28;20037;-76
2022/03/05 12:07:38;;;;;;;18.92;12.88;;;;;;;;;;5082287;28;20043;-77
2022/03/05 12:10:14;;;;;;;21.65;11.63;;;;;;;;;;5068977;28;20040;-77
2022/03/05 12:12:53;;;;;;;19.42;12.48;;;;;;;;;;5076576;28;20098;-77
2022/03/05 12:15:26;;;;;;;21.08;12.95;;;;;;;;;;5083595;28;20119;-77
2022/03/05 12:17:52;;;;;;;22.85;12.65;;;;;;;;;;5074848;28;20468;-76
2022/03/05 12:20:20;;;;;;;22.42;12.77;;;;;;;;;;5061746;28;20025;-81
2022/03/05 12:22:47;;;;;;;40.03;23.67;;;;;;;;;;5080487;28;20024;-78
2022/03/05 12:25:13;;;;;;;26.08;12.70;;;;;;;;;;5081896;28;20085;-77
2022/03/05 12:27:46;;;;;;;20.88;12.35;;;;;;;;;;5081564;28;20024;-78
2022/03/05 12:30:13;;;;;;;20.38;12.23;;;;;;;;;;5082423;28;20040;-79
2022/03/05 12:32:41;;;;;;;21.80;12.57;;;;;;;;;;5085073;28;20041;-77
2022/03/05 12:35:08;;;;;;;19.58;12.38;;;;;;;;;;5079019;28;20523;-77
2022/03/05 12:37:35;;;;;;;22.35;13.02;;;;;;;;;;5087234;28;20029;-78
2022/03/05 12:40:02;;;;;;;18.48;11.93;;;;;;;;;;5089961;28;20056;-76
2022/03/05 12:42:38;;;;;;;20.00;13.05;;;;;;;;;;5082021;28;20119;-76
2022/03/05 12:45:04;;;;;;;19.92;12.35;;;;;;;;;;5084805;28;20614;-77
2022/03/05 12:47:34;;;;;;;19.00;12.02;;;;;;;;;;5063205;28;20036;-77
2022/03/05 12:50:18;;;;;;;21.90;12.90;;;;;;;;;;5089482;28;20040;-77
2022/03/05 12:52:57;;;;;;;21.38;13.50;;;;;;;;;;5073587;28;20128;-76
2022/03/05 12:55:26;;;;;;;28.38;16.83;;;;;;;;;;5083215;28;20394;-76
2022/03/05 12:57:52;;;;;;;22.30;13.77;;;;;;;;;;5082031;28;20432;-76
2022/03/05 13:00:18;;;;;;;19.60;12.63;;;;;;;;;;5083890;28;20444;-76
2022/03/05 13:02:44;;;;;;;21.98;12.35;;;;;;;;;;5081812;28;20135;-75
2022/03/05 13:05:14;;;;;;;21.52;12.77;;;;;;;;;;5082890;28;20044;-75
2022/03/05 13:07:41;;;;;;;21.55;12.80;;;;;;;;;;5092828;28;20028;-74
2022/03/05 13:10:10;;;;;;;20.88;13.63;;;;;;;;;;5083973;28;20161;-74
2022/03/05 13:12:36;;;;;;;20.52;13.02;;;;;;;;;;5077275;28;20029;-77
2022/03/05 13:15:02;;;;;;;21.05;12.80;;;;;;;;;;5090273;28;20498;-80
2022/03/05 13:17:28;;;;;;;21.00;12.38;;;;;;;;;;5079621;28;20047;-78
2022/03/05 13:19:59;;;;;;;20.58;12.43;;;;;;;;;;5077589;28;20039;-77
2022/03/05 13:22:26;;;;;;;18.13;11.57;;;;;;;;;;5075509;28;20062;-77
2022/03/05 13:24:52;;;;;;;19.42;12.30;;;;;;;;;;5081215;28;20116;-78
2022/03/05 13:27:18;;;;;;;21.08;13.02;;;;;;;;;;5068538;28;20317;-75
2022/03/05 13:29:44;;;;;;;19.92;12.10;;;;;;;;;;5081105;28;20032;-74
2022/03/05 13:32:10;;;;;;;20.52;12.05;;;;;;;;;;5080627;28;20115;-75
2022/03/05 13:34:36;;;;;;;20.13;11.60;;;;;;;;;;5077746;28;20068;-75
2022/03/05 13:37:09;;;;;;;21.15;12.88;;;;;;;;;;5079369;28;20043;-75
2022/03/05 13:39:36;;;;;;;21.45;11.75;;;;;;;;;;5073463;28;20124;-75
2022/03/05 13:42:09;;;;;;;21.55;13.40;;;;;;;;;;5079137;28;20024;-74
2022/03/05 13:44:37;;;;;;;23.08;13.38;;;;;;;;;;5084365;28;20035;-75
2022/03/05 13:47:04;;;;;;;20.73;13.13;;;;;;;;;;5082653;28;20024;-74
2022/03/05 13:49:31;;;;;;;19.50;11.77;;;;;;;;;;5080013;28;20052;-74
2022/03/05 13:52:01;;;;;;;22.02;12.95;;;;;;;;;;5089040;28;20028;-75
2022/03/05 13:54:40;;;;;;;23.83;12.77;;;;;;;;;;5078067;28;20044;-74
2022/03/05 13:57:06;;;;;;;21.15;11.93;;;;;;;;;;5085978;28;20028;-74
2022/03/05 13:59:50;;;;;;;18.38;11.45;;;;;;;;;;5078437;28;20547;-75
2022/03/05 14:02:17;;;;;;;18.17;11.63;;;;;;;;;;5082500;28;20047;-74
2022/03/05 14:05:02;;;;;;;32.20;18.83;;;;;;;;;;5083813;28;20032;-75
2022/03/05 14:07:30;;;;;;;19.77;12.38;;;;;;;;;;5077133;28;20025;-74
2022/03/05 14:09:57;;;;;;;37.70;22.75;;;;;;;;;;5081462;28;20029;-75
2022/03/05 14:12:27;;;;;;;19.92;12.18;;;;;;;;;;5064842;28;20471;-75
2022/03/05 14:14:57;;;;;;;19.73;12.32;;;;;;;;;;5077605;28;20041;-75
2022/03/05 14:17:26;;;;;;;20.33;11.82;;;;;;;;;;5058754;28;20116;-76
2022/03/05 14:20:11;;;;;;;19.98;11.60;;;;;;;;;;5085822;28;20036;-75
2022/03/05 14:22:41;;;;;;;17.75;11.13;;;;;;;;;;5079985;28;20111;-76
2022/03/05 14:25:14;;;;;;;21.17;12.88;;;;;;;;;;5076591;28;20036;-76
2022/03/05 14:27:40;;;;;;;21.10;12.15;;;;;;;;;;5079029;28;20101;-75